Time;durP1;ratioP1;P1;durP2;ratioP2;P2;SDS_P1;SDS_P2;PMS_P1;PMS_P2;Temp;Humidity;BMP_temperature;BMP_pressure;BME280_temperature;BME280_humidity;BME280_pressure;Samples;Min_cycle;Max_cycle;Signal;HPM_P1;HPM_P2
2022/09/25 00:02:13;;;;;;;3.90;3.60;;;9.00;99.90;9.70;96485.00;;;;5069546;28;20216;-69
2022/09/25 00:05:04;;;;;;;4.93;4.23;;;9.00;99.90;10.00;96484.00;;;;5069478;28;20196;-73
2022/09/25 00:07:55;;;;;;;4.47;4.00;;;9.00;99.90;10.40;96473.00;;;;5079031;28;20255;-72
2022/09/25 00:10:46;;;;;;;5.93;4.37;;;9.00;99.90;10.40;96466.00;;;;5069061;28;20290;-72
2022/09/25 00:13:35;;;;;;;4.57;4.13;;;9.10;99.90;10.30;96488.00;;;;5069601;28;20204;-73
2022/09/25 00:16:27;;;;;;;4.43;4.03;;;9.10;99.90;10.10;96473.00;;;;5068986;28;20277;-72
2022/09/25 00:22:29;;;;;;;4.47;4.03;;;9.10;99.90;10.50;96472.00;;;;5073483;28;20192;-73
2022/09/25 00:25:19;;;;;;;4.67;4.37;;;9.20;99.90;10.40;96475.00;;;;5078181;28;20204;-71
2022/09/25 00:28:07;;;;;;;3.83;3.53;;;9.20;99.90;10.00;96475.00;;;;5073066;28;20908;-73
2022/09/25 00:30:56;;;;;;;4.50;3.93;;;9.10;99.90;10.00;96468.00;;;;5068969;28;20953;-73
2022/09/25 00:33:45;;;;;;;5.10;4.33;;;9.10;99.90;10.30;96472.00;;;;5070621;28;20199;-73
2022/09/25 00:36:34;;;;;;;4.47;4.07;;;9.10;99.90;10.40;96480.00;;;;5068770;28;20754;-72
2022/09/25 00:39:25;;;;;;;4.03;3.27;;;9.10;99.90;9.90;96473.00;;;;5069995;28;20658;-73
2022/09/25 00:42:14;;;;;;;5.10;4.70;;;9.10;99.90;9.80;96467.00;;;;5070705;28;20210;-73
2022/09/25 00:45:04;;;;;;;4.37;4.07;;;9.00;99.90;9.90;96450.00;;;;5069027;28;20196;-72
2022/09/25 00:47:58;;;;;;;4.53;4.13;;;9.00;99.90;9.60;96462.00;;;;5070166;28;20323;-72
2022/09/25 00:50:51;;;;;;;5.23;4.47;;;9.00;99.90;9.70;96451.00;;;;5069951;28;20199;-73
2022/09/25 00:53:41;;;;;;;4.50;4.10;;;8.90;99.90;10.00;96443.00;;;;5069758;28;20204;-74
2022/09/25 00:56:38;;;;;;;4.83;4.43;;;8.90;99.90;10.10;96447.00;;;;5069160;28;20228;-74
2022/09/25 00:59:31;;;;;;;4.70;4.30;;;9.00;99.90;10.20;96434.00;;;;5069172;28;20211;-73
2022/09/25 01:02:26;;;;;;;6.20;4.47;;;9.00;99.90;10.40;96426.00;;;;5078986;28;20248;-73
2022/09/25 01:05:19;;;;;;;6.33;4.73;;;9.00;99.90;10.60;96419.00;;;;5069021;28;20196;-73
2022/09/25 01:08:13;;;;;;;4.30;3.90;;;9.10;99.90;10.60;96425.00;;;;5068930;28;20220;-74
2022/09/25 01:11:02;;;;;;;4.53;4.07;;;9.20;99.90;10.40;96428.00;;;;5071112;28;20664;-73
2022/09/25 01:13:55;;;;;;;4.40;4.00;;;9.20;99.90;10.50;96425.00;;;;5073698;28;20203;-74
2022/09/25 01:16:53;;;;;;;5.27;4.63;;;9.30;99.90;10.60;96419.00;;;;5072330;28;20240;-74
2022/09/25 01:19:55;;;;;;;4.97;4.53;;;9.30;99.90;10.70;96422.00;;;;5073488;28;20219;-74
2022/09/25 01:22:58;;;;;;;6.67;3.50;;;9.30;99.90;10.50;96418.00;;;;5072146;28;20233;-74
2022/09/25 01:26:10;;;;;;;6.27;4.50;;;9.30;99.90;10.10;96420.00;;;;5083457;28;20202;-74
2022/09/25 01:29:11;;;;;;;4.40;3.97;;;9.30;99.90;10.40;96427.00;;;;5073096;28;20207;-74
2022/09/25 01:32:05;;;;;;;4.97;4.37;;;9.30;99.90;10.80;96429.00;;;;5073456;28;20196;-74
2022/09/25 01:35:01;;;;;;;4.77;4.33;;;9.30;99.90;10.80;96437.00;;;;5085505;28;20699;-74
2022/09/25 01:37:58;;;;;;;4.00;3.50;;;9.40;99.90;10.60;96437.00;;;;5084980;22;20228;-67
2022/09/25 01:40:55;;;;;;;4.23;3.83;;;9.40;99.90;10.50;96433.00;;;;5052058;28;20204;-67
2022/09/25 01:43:49;;;;;;;4.57;4.17;;;9.40;99.90;10.80;96433.00;;;;5062660;28;20219;-66
2022/09/25 01:46:44;;;;;;;5.03;4.00;;;9.40;99.90;10.60;96429.00;;;;5059951;28;20673;-65
2022/09/25 01:49:39;;;;;;;4.57;3.93;;;9.40;99.90;10.40;96416.00;;;;5050303;28;20240;-67
2022/09/25 01:52:36;;;;;;;6.83;3.50;;;9.40;99.90;10.60;96421.00;;;;5051554;28;20204;-67
2022/09/25 01:55:31;;;;;;;5.37;4.97;;;9.40;99.90;10.60;96408.00;;;;5047119;28;20622;-66
2022/09/25 01:58:26;;;;;;;4.33;4.00;;;9.40;99.90;10.60;96410.00;;;;5041033;28;20278;-67
2022/09/25 02:01:21;;;;;;;4.77;4.27;;;9.40;99.90;10.50;96412.00;;;;5052601;28;20749;-67
2022/09/25 02:04:17;;;;;;;4.00;3.70;;;9.40;99.90;10.60;96402.00;;;;5045718;28;20202;-66
2022/09/25 02:07:21;;;;;;;5.47;4.00;;;9.30;99.90;10.30;96390.00;;;;5035784;28;20791;-67
2022/09/25 02:10:14;;;;;;;5.00;4.50;;;9.40;99.90;10.50;96380.00;;;;5032915;28;20201;-67
2022/09/25 02:13:11;;;;;;;4.60;4.13;;;9.30;99.90;10.10;96407.00;;;;5042987;28;20197;-67
2022/09/25 02:16:04;;;;;;;5.03;4.17;;;9.30;99.90;9.60;96413.00;;;;5049988;28;20274;-67
2022/09/25 02:22:07;;;;;;;6.70;4.00;;;9.00;99.90;9.90;96422.00;;;;5049070;28;20200;-67
2022/09/25 02:25:00;;;;;;;4.57;4.17;;;9.00;99.90;10.10;96428.00;;;;5046750;28;20232;-67
2022/09/25 02:27:49;;;;;;;5.17;4.67;;;9.10;99.90;10.40;96438.00;;;;5038928;28;20766;-67
2022/09/25 02:30:38;;;;;;;5.10;4.60;;;9.10;99.90;10.50;96429.00;;;;5039823;28;20229;-67
2022/09/25 02:33:27;;;;;;;8.13;4.37;;;9.20;99.90;10.70;96447.00;;;;5042719;28;20208;-67
2022/09/25 02:36:22;;;;;;;6.60;4.27;;;9.30;99.90;10.60;96448.00;;;;5046209;28;20192;-67
2022/09/25 02:39:16;;;;;;;4.83;4.10;;;9.30;99.90;10.20;96463.00;;;;5043269;28;20259;-66
2022/09/25 02:42:20;;;;;;;4.93;4.43;;;9.30;99.90;10.10;96458.00;;;;5041207;28;20289;-68
2022/09/25 02:45:24;;;;;;;4.83;4.17;;;9.30;99.90;10.50;96446.00;;;;5051742;28;20204;-67
2022/09/25 02:48:23;;;;;;;4.70;4.30;;;9.30;99.90;10.90;96450.00;;;;5046665;28;20228;-67
2022/09/25 02:51:22;;;;;;;5.57;5.10;;;9.40;99.90;11.10;96435.00;;;;5044934;28;20294;-67
2022/09/25 02:54:20;;;;;;;5.40;4.47;;;9.50;99.90;11.20;96437.00;;;;5047500;28;20607;-68
2022/09/25 02:57:13;;;;;;;4.97;4.47;;;9.60;99.90;11.10;96436.00;;;;5032823;28;20686;-67
2022/09/25 03:00:08;;;;;;;4.33;4.00;;;9.60;99.90;10.70;96425.00;;;;5049360;28;20888;-68
2022/09/25 03:02:59;;;;;;;5.60;4.17;;;9.60;99.90;10.40;96425.00;;;;5040843;28;20236;-67
2022/09/25 03:05:49;;;;;;;5.30;4.80;;;9.60;99.90;10.60;96417.00;;;;5037336;28;20721;-67
2022/09/25 03:08:50;;;;;;;5.10;4.63;;;9.60;99.90;10.60;96412.00;;;;5038660;28;20634;-67
2022/09/25 03:11:42;;;;;;;5.17;4.70;;;9.50;99.90;10.60;96411.00;;;;5046979;28;20200;-67
2022/09/25 03:14:31;;;;;;;4.63;4.27;;;9.50;99.90;10.60;96414.00;;;;5051139;28;20204;-66
2022/09/25 03:17:21;;;;;;;4.70;4.30;;;9.50;99.90;10.30;96418.00;;;;5044546;28;20702;-67
2022/09/25 03:20:10;;;;;;;5.63;5.03;;;9.50;99.90;10.40;96411.00;;;;5042309;28;20338;-65
2022/09/25 03:22:59;;;;;;;5.00;4.50;;;9.50;99.90;10.80;96407.00;;;;5051223;28;20200;-66
2022/09/25 03:25:47;;;;;;;5.53;5.03;;;9.50;99.90;10.80;96403.00;;;;5043093;28;20335;-66
2022/09/25 03:28:39;;;;;;;5.57;4.43;;;9.60;99.90;10.60;96409.00;;;;5041874;28;20637;-67
2022/09/25 03:31:28;;;;;;;5.57;5.07;;;9.50;99.90;10.60;96399.00;;;;5043464;28;20208;-65
2022/09/25 03:34:19;;;;;;;5.00;4.40;;;9.50;99.90;10.80;96407.00;;;;5038092;28;20197;-66
2022/09/25 03:37:08;;;;;;;5.10;4.70;;;9.50;99.90;10.90;96401.00;;;;5046449;28;20841;-66
2022/09/25 03:39:57;;;;;;;6.00;4.27;;;9.60;99.90;10.80;96400.00;;;;5038326;28;20288;-65
2022/09/25 03:42:46;;;;;;;5.80;4.83;;;9.60;99.90;10.90;96404.00;;;;5050086;28;20266;-66
2022/09/25 03:45:36;;;;;;;5.33;4.83;;;9.60;99.90;11.00;96408.00;;;;5045261;28;20740;-65
2022/09/25 03:48:25;;;;;;;4.50;4.03;;;9.60;99.90;11.10;96408.00;;;;5040981;28;20733;-66
2022/09/25 03:51:14;;;;;;;6.03;5.50;;;9.70;99.90;11.20;96408.00;;;;5038573;28;20254;-66
2022/09/25 03:54:03;;;;;;;8.17;4.63;;;9.70;99.90;11.30;96423.00;;;;5039517;28;20213;-66
2022/09/25 03:56:51;;;;;;;5.90;4.50;;;9.80;99.90;11.30;96419.00;;;;5042371;28;20203;-66
2022/09/25 03:59:40;;;;;;;6.33;4.97;;;9.80;99.90;11.30;96417.00;;;;5050168;28;20248;-66
2022/09/25 04:02:30;;;;;;;5.00;4.60;;;9.80;99.90;11.50;96422.00;;;;5049828;28;20200;-66
2022/09/25 04:05:20;;;;;;;6.03;4.47;;;9.90;99.90;11.50;96425.00;;;;5050113;28;20208;-66
2022/09/25 04:08:09;;;;;;;4.73;4.33;;;10.00;99.90;11.30;96429.00;;;;5042284;28;20224;-66
2022/09/25 04:10:59;;;;;;;5.03;4.53;;;10.00;99.90;11.00;96434.00;;;;5039385;28;20609;-66
2022/09/25 04:13:48;;;;;;;4.50;4.10;;;10.00;99.90;10.80;96431.00;;;;5050015;28;20212;-66
2022/09/25 04:16:36;;;;;;;5.93;5.17;;;9.90;99.90;11.10;96425.00;;;;5049878;28;20200;-66
2022/09/25 04:19:26;;;;;;;5.13;4.67;;;9.90;99.90;10.90;96428.00;;;;5049561;28;20685;-66
2022/09/25 04:22:15;;;;;;;4.83;4.43;;;9.80;99.90;11.00;96425.00;;;;5044695;28;20224;-66
2022/09/25 04:25:04;;;;;;;5.23;4.73;;;9.80;99.90;11.20;96428.00;;;;5041562;28;20232;-66
2022/09/25 04:27:55;;;;;;;5.43;4.93;;;9.80;99.90;11.10;96423.00;;;;5036401;28;20253;-66
2022/09/25 04:30:43;;;;;;;7.53;4.93;;;9.80;99.90;10.80;96423.00;;;;5037370;28;20262;-67
2022/09/25 04:33:46;;;;;;;5.03;4.63;;;9.80;99.90;10.50;96418.00;;;;5049689;28;20669;-65
2022/09/25 04:36:37;;;;;;;4.83;4.33;;;9.80;99.90;10.40;96420.00;;;;5049091;28;20197;-66
2022/09/25 04:39:25;;;;;;;5.53;4.40;;;9.70;99.90;10.60;96429.00;;;;5049251;28;20640;-66
2022/09/25 04:42:15;;;;;;;4.90;4.47;;;9.70;99.90;10.60;96429.00;;;;5045537;28;20295;-66
2022/09/25 04:45:05;;;;;;;5.40;4.97;;;9.60;99.90;10.70;96432.00;;;;5037090;28;20204;-66
2022/09/25 04:47:54;;;;;;;6.17;5.57;;;9.70;99.90;10.70;96429.00;;;;5047280;28;20303;-66
2022/09/25 04:50:50;;;;;;;6.47;4.93;;;9.70;99.90;10.70;96437.00;;;;5042797;28;20204;-66
2022/09/25 04:53:40;;;;;;;6.77;6.07;;;9.70;99.90;10.70;96441.00;;;;5049672;28;20758;-66
2022/09/25 04:56:29;;;;;;;6.20;5.60;;;9.70;99.90;10.90;96437.00;;;;5049674;28;20197;-65
2022/09/25 04:59:17;;;;;;;6.40;5.83;;;9.70;99.90;11.00;96438.00;;;;5049611;28;20201;-65
2022/09/25 05:02:06;;;;;;;6.03;5.53;;;9.80;99.90;10.90;96436.00;;;;5048419;28;20210;-66
2022/09/25 05:04:55;;;;;;;5.70;5.20;;;9.80;99.90;10.90;96443.00;;;;5041350;28;20209;-66
2022/09/25 05:07:52;;;;;;;6.30;5.37;;;9.80;99.90;10.80;96449.00;;;;5040478;28;20225;-66
2022/09/25 05:10:44;;;;;;;6.37;5.70;;;9.80;99.90;10.60;96435.00;;;;5036904;28;20204;-66
2022/09/25 05:13:32;;;;;;;7.80;6.17;;;9.70;99.90;10.80;96454.00;;;;5048494;28;20270;-66
2022/09/25 05:16:21;;;;;;;11.40;7.80;;;9.70;99.90;10.90;96444.00;;;;5044331;28;20251;-66
2022/09/25 05:19:10;;;;;;;10.03;8.90;;;9.70;99.90;11.00;96447.00;;;;5035977;28;20292;-66
2022/09/25 05:21:59;;;;;;;8.73;6.67;;;9.80;99.90;11.20;96445.00;;;;5043229;28;20665;-66
2022/09/25 05:24:47;;;;;;;10.87;6.73;;;9.80;99.90;11.10;96448.00;;;;5040317;28;20674;-66
2022/09/25 05:27:37;;;;;;;7.07;6.40;;;9.80;99.90;11.00;96456.00;;;;5031344;28;20222;-66
2022/09/25 05:30:28;;;;;;;8.60;7.20;;;9.80;99.90;10.90;96455.00;;;;5035338;28;20225;-66
2022/09/25 05:33:18;;;;;;;6.97;6.20;;;9.80;99.90;11.00;96462.00;;;;5038978;28;20193;-66
2022/09/25 05:36:08;;;;;;;8.10;6.27;;;9.90;99.90;11.10;96463.00;;;;5045546;28;20224;-66
2022/09/25 05:38:59;;;;;;;6.50;5.70;;;9.90;99.90;11.40;96464.00;;;;5045724;28;20232;-66
2022/09/25 05:41:48;;;;;;;7.23;6.50;;;9.90;99.90;11.40;96453.00;;;;5046626;28;20205;-66
2022/09/25 05:44:41;;;;;;;8.97;7.23;;;10.00;99.90;11.50;96469.00;;;;5038273;28;20235;-65
2022/09/25 05:47:29;;;;;;;10.57;7.70;;;10.00;99.90;11.60;96463.00;;;;5044600;28;20235;-66
2022/09/25 05:50:18;;;;;;;6.57;5.93;;;10.10;99.90;11.40;96471.00;;;;5035072;28;20222;-66
2022/09/25 05:53:07;;;;;;;6.27;5.67;;;10.10;99.90;11.20;96480.00;;;;5042655;28;20696;-66
2022/09/25 05:55:58;;;;;;;6.97;5.77;;;10.10;99.90;11.30;96471.00;;;;5042087;28;20209;-66
2022/09/25 05:58:47;;;;;;;5.73;5.03;;;10.10;99.90;11.50;96463.00;;;;5043296;28;20283;-66
2022/09/25 06:01:37;;;;;;;7.40;5.30;;;10.10;99.90;11.40;96462.00;;;;5044908;28;20666;-66
2022/09/25 06:04:26;;;;;;;6.33;5.73;;;10.10;99.90;11.20;96464.00;;;;5038216;28;20243;-66
2022/09/25 06:07:14;;;;;;;5.60;5.10;;;10.10;99.90;11.20;96464.00;;;;5047569;28;20216;-66
2022/09/25 06:10:04;;;;;;;6.20;5.30;;;10.10;99.90;11.20;96457.00;;;;5032770;28;20278;-65
2022/09/25 06:12:58;;;;;;;5.83;5.13;;;10.10;99.90;11.30;96457.00;;;;5047811;28;20204;-65
2022/09/25 06:15:49;;;;;;;6.20;5.60;;;10.10;99.90;11.40;96450.00;;;;5038261;28;20709;-65
2022/09/25 06:18:39;;;;;;;9.17;5.73;;;10.20;99.90;11.40;96453.00;;;;5043836;28;20220;-66
2022/09/25 06:21:28;;;;;;;6.30;5.70;;;10.10;99.90;11.30;96449.00;;;;5041615;28;20609;-65
2022/09/25 06:24:16;;;;;;;6.17;5.57;;;10.20;99.90;11.20;96456.00;;;;5036532;28;20335;-65
2022/09/25 06:27:06;;;;;;;14.67;11.20;;;10.10;99.90;11.20;96459.00;;;;5040565;28;20217;-64
2022/09/25 06:29:55;;;;;;;9.97;8.20;;;10.20;99.90;11.30;96466.00;;;;5045578;28;20641;-65
2022/09/25 06:32:44;;;;;;;8.00;7.30;;;10.10;99.90;11.40;96464.00;;;;5041777;28;20196;-65
2022/09/25 06:35:34;;;;;;;8.23;7.53;;;10.20;99.90;11.20;96466.00;;;;5040759;28;20205;-65
2022/09/25 06:38:24;;;;;;;16.13;14.63;;;10.10;99.90;11.30;96472.00;;;;5042832;28;20314;-65
2022/09/25 06:41:12;;;;;;;8.93;6.43;;;10.10;99.90;11.30;96469.00;;;;5046532;28;20207;-65
2022/09/25 06:44:01;;;;;;;7.73;6.00;;;10.20;99.90;11.40;96452.00;;;;5040068;28;20635;-65
2022/09/25 06:46:53;;;;;;;9.07;8.17;;;10.20;99.90;11.50;96465.00;;;;5048668;28;20346;-65
2022/09/25 06:49:42;;;;;;;19.80;10.73;;;10.20;99.90;11.50;96467.00;;;;5040469;28;20227;-65
2022/09/25 06:52:32;;;;;;;27.67;18.40;;;10.20;99.90;11.70;96457.00;;;;5050777;28;20205;-65
2022/09/25 06:55:20;;;;;;;21.77;19.43;;;10.30;99.90;11.90;96458.00;;;;5040286;28;20285;-65
2022/09/25 06:58:13;;;;;;;17.43;14.43;;;10.40;99.90;12.00;96457.00;;;;5050624;28;20213;-65
2022/09/25 07:01:02;;;;;;;14.83;11.03;;;10.40;99.90;12.10;96454.00;;;;5035563;28;20619;-66
2022/09/25 07:03:52;;;;;;;11.03;9.00;;;10.50;99.90;12.00;96457.00;;;;5047602;28;20209;-65
2022/09/25 07:06:41;;;;;;;9.90;8.47;;;10.60;99.90;12.00;96463.00;;;;5047797;28;20693;-65
2022/09/25 07:09:31;;;;;;;11.17;10.00;;;10.70;99.90;12.20;96459.00;;;;5047765;28;20834;-65
2022/09/25 07:12:20;;;;;;;11.77;9.97;;;10.70;99.90;12.20;96466.00;;;;5042904;28;20258;-66
2022/09/25 07:15:10;;;;;;;11.53;9.57;;;10.70;99.90;12.10;96460.00;;;;5044168;28;20590;-65
2022/09/25 07:17:59;;;;;;;8.90;8.00;;;10.80;99.90;12.00;96459.00;;;;5043625;28;20231;-65
2022/09/25 07:20:48;;;;;;;9.87;8.70;;;10.80;99.90;12.00;96463.00;;;;5040698;28;20243;-65
2022/09/25 07:23:37;;;;;;;9.93;8.93;;;10.80;99.90;12.20;96455.00;;;;5043682;28;20235;-66
2022/09/25 07:26:29;;;;;;;10.30;9.30;;;10.80;99.90;12.10;96455.00;;;;5037747;28;20254;-65
2022/09/25 07:29:18;;;;;;;9.03;8.13;;;10.80;99.90;12.10;96469.00;;;;5038894;28;20287;-65
2022/09/25 07:32:06;;;;;;;8.87;7.97;;;10.80;99.90;12.10;96459.00;;;;5039556;28;20201;-66
2022/09/25 07:34:55;;;;;;;8.63;7.83;;;10.90;99.90;12.00;96459.00;;;;5041826;28;20618;-65
2022/09/25 07:37:44;;;;;;;8.67;7.13;;;10.80;99.90;12.20;96465.00;;;;5055666;23;20858;-75
2022/09/25 07:40:34;;;;;;;10.00;8.10;;;10.90;99.90;12.20;96463.00;;;;5042677;28;20204;-77
2022/09/25 07:43:24;;;;;;;11.53;10.10;;;10.90;99.90;12.20;96469.00;;;;5047939;28;20212;-76
2022/09/25 07:46:13;;;;;;;13.00;10.77;;;10.90;99.90;12.10;96466.00;;;;5041034;28;20584;-76
2022/09/25 07:49:01;;;;;;;11.30;9.63;;;11.00;99.90;12.10;96474.00;;;;5033508;28;20718;-76
2022/09/25 07:51:50;;;;;;;10.97;9.33;;;10.90;99.90;12.20;96467.00;;;;5028448;28;20201;-77
2022/09/25 07:54:39;;;;;;;12.07;9.83;;;10.90;99.90;12.20;96476.00;;;;5025629;28;20213;-77
2022/09/25 07:57:28;;;;;;;9.50;8.50;;;10.90;99.90;12.20;96469.00;;;;5028628;28;20225;-76
2022/09/25 08:00:19;;;;;;;9.83;7.83;;;10.90;99.90;12.30;96473.00;;;;5020330;28;20216;-77
2022/09/25 08:03:10;;;;;;;14.50;10.23;;;10.90;99.90;12.30;96477.00;;;;5028822;28;20212;-77
2022/09/25 08:05:59;;;;;;;8.83;7.93;;;11.00;99.90;12.30;96484.00;;;;5022425;28;20564;-77
2022/09/25 08:08:48;;;;;;;9.97;9.00;;;11.00;99.90;12.50;96479.00;;;;5026553;28;20221;-77
2022/09/25 08:11:36;;;;;;;8.93;7.77;;;11.00;99.90;12.60;96487.00;;;;5027470;28;20237;-77
2022/09/25 08:14:25;;;;;;;9.57;8.67;;;11.00;99.90;12.50;96488.00;;;;5026865;28;20202;-76
2022/09/25 08:17:15;;;;;;;10.03;9.03;;;11.10;99.90;12.40;96475.00;;;;5027288;28;20205;-76
2022/09/25 08:20:06;;;;;;;10.33;9.33;;;11.10;99.90;12.50;96485.00;;;;5028078;28;20666;-76
2022/09/25 08:22:56;;;;;;;11.60;9.57;;;11.10;99.90;12.60;96480.00;;;;5029826;28;20201;-77
2022/09/25 08:25:48;;;;;;;11.23;9.73;;;11.10;99.90;12.50;96493.00;;;;5018751;28;20220;-77
2022/09/25 08:28:37;;;;;;;10.97;9.70;;;11.10;99.90;12.50;96491.00;;;;5027880;28;20709;-77
2022/09/25 08:31:26;;;;;;;10.00;9.00;;;11.10;99.90;12.50;96494.00;;;;5025945;28;20308;-77
2022/09/25 08:34:16;;;;;;;11.27;9.93;;;11.10;99.90;12.40;96503.00;;;;5022250;28;20198;-77
2022/09/25 08:37:25;;;;;;;11.00;9.90;;;11.20;99.90;12.40;96501.00;;;;5026842;28;20197;-78
2022/09/25 08:40:19;;;;;;;14.37;9.33;;;11.10;99.90;12.50;96500.00;;;;5028107;28;20576;-76
2022/09/25 08:43:16;;;;;;;11.10;8.70;;;11.10;99.90;12.60;96507.00;;;;5037540;28;20220;-76
2022/09/25 08:49:36;;;;;;;10.90;9.80;;;11.20;99.90;12.60;96514.00;;;;4971415;28;20585;-73
2022/09/25 08:52:25;;;;;;;9.67;8.73;;;11.20;99.90;12.50;96518.00;;;;5028438;28;20283;-77
2022/09/25 08:56:13;;;;;;;10.50;8.90;;;11.00;99.90;12.60;96505.00;;;;5031611;28;20271;-77
2022/09/25 08:58:41;;;;;;;12.03;9.20;;;11.20;99.90;12.60;96505.00;;;;5024297;28;20726;-77
2022/09/25 09:01:43;;;;;;;10.27;8.50;;;11.20;99.90;12.60;96495.00;;;;5030034;28;20212;-77
2022/09/25 09:04:38;;;;;;;9.37;8.40;;;11.20;99.90;12.30;96480.00;;;;5023280;28;20220;-77
2022/09/25 09:07:34;;;;;;;10.50;9.17;;;11.20;99.90;12.10;96489.00;;;;5029810;28;20229;-77
2022/09/25 09:10:33;;;;;;;14.00;10.50;;;11.10;99.90;12.00;96486.00;;;;5025167;28;20225;-77
2022/09/25 09:13:28;;;;;;;14.03;11.60;;;11.00;99.90;12.20;96488.00;;;;5030729;28;20205;-77
2022/09/25 09:16:28;;;;;;;11.23;10.13;;;11.00;99.90;12.20;96485.00;;;;5028104;28;20193;-77
2022/09/25 09:19:17;;;;;;;12.30;10.23;;;11.00;99.90;12.20;96493.00;;;;5025648;28;20224;-77
2022/09/25 09:22:11;;;;;;;13.37;11.47;;;11.00;99.90;12.20;96493.00;;;;5025607;28;20206;-77
2022/09/25 09:25:09;;;;;;;14.17;11.33;;;11.00;99.90;12.50;96494.00;;;;5030414;28;20213;-77
2022/09/25 09:28:30;;;;;;;11.77;9.27;;;11.00;99.90;12.70;96485.00;;;;5032480;28;20232;-77
2022/09/25 09:31:26;;;;;;;11.27;10.07;;;11.10;99.90;12.80;96486.00;;;;5026902;28;20720;-77
2022/09/25 09:34:44;;;;;;;11.60;10.40;;;11.20;99.90;12.90;96490.00;;;;5031310;28;20196;-77
2022/09/25 09:38:04;;;;;;;12.63;10.50;;;11.30;99.90;12.80;96487.00;;;;5029899;28;20761;-76
2022/09/25 09:41:11;;;;;;;12.83;11.03;;;11.40;99.90;12.90;96480.00;;;;5033248;28;20197;-77
2022/09/25 09:44:24;;;;;;;14.00;12.43;;;11.40;99.90;12.80;96484.00;;;;5024374;28;20259;-77
2022/09/25 09:47:39;;;;;;;13.33;9.60;;;11.50;99.90;12.90;96486.00;;;;5026425;28;20764;-77
2022/09/25 09:50:41;;;;;;;12.13;11.03;;;11.50;99.90;13.00;96479.00;;;;5027928;28;20198;-76
2022/09/25 09:53:39;;;;;;;11.03;9.93;;;11.60;99.90;13.10;96484.00;;;;5027385;28;20581;-77
2022/09/25 09:56:31;;;;;;;10.17;9.10;;;11.60;99.90;13.00;96484.00;;;;5025327;28;20202;-77
2022/09/25 09:59:23;;;;;;;9.70;8.70;;;11.60;99.90;13.10;96480.00;;;;5026699;28;20689;-77
2022/09/25 10:02:27;;;;;;;11.47;9.33;;;11.70;99.90;13.20;96489.00;;;;5020773;28;20248;-78
2022/09/25 10:05:23;;;;;;;9.70;7.70;;;11.70;99.90;13.20;96486.00;;;;5025647;28;20704;-77
2022/09/25 10:08:12;;;;;;;7.97;7.03;;;11.80;99.90;13.50;96488.00;;;;5028440;28;20262;-77
2022/09/25 10:11:09;;;;;;;9.53;8.57;;;11.90;99.90;13.70;96480.00;;;;5029679;28;20225;-77
2022/09/25 10:13:59;;;;;;;7.90;7.10;;;11.90;99.90;13.70;96487.00;;;;5033053;28;20762;-77
2022/09/25 10:16:50;;;;;;;8.13;7.33;;;12.00;99.90;13.80;96479.00;;;;5042182;28;20203;-77
2022/09/25 10:19:49;;;;;;;10.87;8.43;;;12.10;99.90;13.80;96486.00;;;;5027502;28;20198;-77
2022/09/25 10:22:41;;;;;;;9.00;7.97;;;12.20;99.90;13.80;96490.00;;;;5028239;28;20209;-77
2022/09/25 10:25:38;;;;;;;7.67;6.63;;;12.20;99.90;13.90;96468.00;;;;5032944;28;20208;-77
2022/09/25 10:28:31;;;;;;;7.27;6.57;;;12.30;99.90;13.80;96477.00;;;;5033914;28;20771;-77
2022/09/25 10:31:20;;;;;;;7.53;6.87;;;12.30;99.90;13.80;96460.00;;;;5024579;28;20985;-77
2022/09/25 10:34:21;;;;;;;8.73;7.83;;;12.30;99.90;13.90;96451.00;;;;5027193;28;20221;-78
2022/09/25 10:37:18;;;;;;;8.03;7.23;;;12.30;99.90;13.90;96450.00;;;;5022624;28;20715;-77
2022/09/25 10:40:26;;;;;;;8.00;7.20;;;12.40;99.90;14.10;96451.00;;;;5023205;28;20198;-78
2022/09/25 10:43:19;;;;;;;9.63;8.20;;;12.40;99.90;14.30;96453.00;;;;5040606;28;20197;-77
2022/09/25 10:46:14;;;;;;;9.70;8.80;;;12.60;99.90;14.30;96447.00;;;;5023309;28;20204;-77
2022/09/25 10:52:21;;;;;;;8.37;7.37;;;12.70;99.90;14.40;96449.00;;;;5025170;28;20327;-77
2022/09/25 10:55:16;;;;;;;8.53;7.73;;;12.80;99.90;14.50;96441.00;;;;5025906;28;20682;-78
2022/09/25 10:58:13;;;;;;;9.07;7.93;;;12.80;99.90;14.50;96440.00;;;;5026756;28;20275;-77
2022/09/25 11:01:03;;;;;;;10.37;7.30;;;12.90;99.90;14.60;96441.00;;;;5026046;28;20217;-78
2022/09/25 11:03:56;;;;;;;9.50;7.83;;;12.90;99.90;14.60;96430.00;;;;5025659;28;20193;-78
2022/09/25 11:06:51;;;;;;;9.80;7.77;;;12.90;99.90;14.70;96433.00;;;;5024891;28;20198;-78
2022/09/25 11:09:44;;;;;;;9.47;8.03;;;13.00;99.90;14.90;96431.00;;;;5024955;28;20259;-78
2022/09/25 11:12:33;;;;;;;8.20;7.17;;;13.10;99.90;15.00;96425.00;;;;5024562;28;20276;-78
2022/09/25 11:15:26;;;;;;;7.07;6.43;;;13.30;99.90;15.30;96422.00;;;;5028001;28;20225;-77
2022/09/25 11:18:37;;;;;;;7.97;7.27;;;13.40;99.90;15.50;96421.00;;;;5027410;28;20236;-78
2022/09/25 11:21:33;;;;;;;8.27;7.57;;;13.60;99.90;15.50;96432.00;;;;5037550;28;20256;-78
2022/09/25 11:24:30;;;;;;;8.53;7.07;;;13.70;99.90;15.50;96434.00;;;;5031816;28;20632;-79
2022/09/25 11:27:24;;;;;;;7.80;7.00;;;13.80;99.90;15.40;96441.00;;;;5032864;28;20247;-78
2022/09/25 11:30:17;;;;;;;6.97;6.33;;;13.80;99.90;15.20;96430.00;;;;5039143;28;20208;-78
2022/09/25 11:33:19;;;;;;;8.33;7.57;;;13.80;99.90;15.00;96438.00;;;;5040936;28;20233;-78
2022/09/25 11:36:16;;;;;;;7.53;6.80;;;13.70;99.90;15.00;96433.00;;;;5027229;28;20748;-77
2022/09/25 11:42:41;;;;;;;7.63;6.40;;;13.60;99.90;15.30;96418.00;;;;5030765;28;20251;-78
2022/09/25 11:45:36;;;;;;;8.67;7.77;;;13.60;99.90;15.30;96410.00;;;;5045885;28;20205;-77
2022/09/25 11:48:41;;;;;;;8.27;7.43;;;13.70;99.90;15.40;96420.00;;;;5034141;28;20218;-78
2022/09/25 11:52:19;;;;;;;11.17;7.20;;;13.70;99.90;15.30;96412.00;;;;5032229;28;20642;-77
2022/09/25 11:56:05;;;;;;;9.60;7.30;;;13.80;99.90;15.70;96403.00;;;;5018397;28;20326;-77
2022/09/25 11:59:17;;;;;;;6.70;6.00;;;13.90;99.90;15.80;96399.00;;;;5025917;28;20214;-77
2022/09/25 12:02:21;;;;;;;14.10;6.60;;;14.00;99.90;16.00;96398.00;;;;5023798;28;20248;-77
2022/09/25 12:05:35;;;;;;;7.27;6.43;;;14.10;99.90;16.20;96398.00;;;;5029025;28;20212;-77
2022/09/25 12:08:43;;;;;;;9.80;6.67;;;14.20;99.90;16.30;96394.00;;;;5019964;28;20599;-77
2022/09/25 12:11:44;;;;;;;7.77;7.07;;;14.40;99.90;16.60;96384.00;;;;5025025;28;20240;-77
2022/09/25 12:14:43;;;;;;;10.17;9.23;;;14.60;99.90;16.90;96380.00;;;;5026994;28;20208;-77
2022/09/25 12:17:42;;;;;;;7.97;6.80;;;14.80;99.90;17.10;96375.00;;;;5028355;28;20217;-77
2022/09/25 12:20:39;;;;;;;7.20;6.33;;;15.00;99.90;16.90;96378.00;;;;5029152;28;20234;-76
2022/09/25 12:23:32;;;;;;;7.30;6.67;;;15.70;99.90;17.30;96358.00;;;;5029974;28;20319;-77
2022/09/25 12:26:29;;;;;;;8.83;6.57;;;15.30;99.90;18.20;96331.00;;;;5024516;28;20208;-78
2022/09/25 12:29:45;;;;;;;8.10;6.70;;;15.60;99.90;18.30;96339.00;;;;5022197;28;20217;-78
2022/09/25 12:33:04;;;;;;;7.10;6.37;;;16.00;99.90;18.30;96341.00;;;;5022049;28;20257;-77
2022/09/25 12:36:03;;;;;;;6.37;5.87;;;16.20;99.90;18.40;96356.00;;;;5026546;28;20209;-77
2022/09/25 12:38:56;;;;;;;6.63;5.90;;;16.30;99.90;18.50;96353.00;;;;5026684;28;20232;-77
2022/09/25 12:41:51;;;;;;;6.47;5.80;;;16.40;99.90;18.50;96349.00;;;;5021196;28;20220;-78
2022/09/25 12:44:49;;;;;;;6.33;5.73;;;16.50;99.90;18.70;96351.00;;;;5025580;28;20200;-78
2022/09/25 12:47:44;;;;;;;7.77;5.70;;;16.60;99.90;18.70;96347.00;;;;5025199;28;20214;-77
2022/09/25 12:50:40;;;;;;;6.37;5.77;;;16.70;99.90;18.80;96351.00;;;;5022548;28;20197;-76
2022/09/25 12:53:36;;;;;;;5.90;5.30;;;16.80;99.90;18.30;96357.00;;;;5024780;28;20245;-77
2022/09/25 12:56:30;;;;;;;8.23;5.63;;;16.80;99.90;18.00;96354.00;;;;5029050;28;20240;-77
2022/09/25 12:59:25;;;;;;;6.30;5.70;;;16.60;99.90;17.90;96356.00;;;;5023459;28;20223;-77
2022/09/25 13:02:23;;;;;;;5.10;4.43;;;16.50;99.90;18.00;96354.00;;;;5023170;28;20209;-77
2022/09/25 13:05:19;;;;;;;5.30;4.80;;;16.40;99.90;18.10;96350.00;;;;5027698;28;20205;-77
2022/09/25 13:08:18;;;;;;;5.73;5.23;;;16.30;99.90;18.40;96338.00;;;;5025481;28;20602;-77
2022/09/25 13:11:14;;;;;;;7.17;5.40;;;16.30;99.90;18.60;96344.00;;;;5029018;28;20320;-78